Terminal Aerodrome Forecast
Issued by NWS Sioux Falls, SD

Home | Current Version | Previous Version | Graphics & Text | Print | Product List | Glossary On
Versions: 1 2 3 4 5 6 7 8 9 10 11 12 13 14 15 16 17 18 19 20 21 22 23 24 25
000
FTUS43 KFSD 302320
TAFSUX
TAF
KSUX 302320Z 0100/0124 15007KT P6SM SKC
     FM011100 16007KT P6SM OVC060
      TEMPO 0112/0114 P6SM -SHRA BKN040
     FM011800 21009KT P6SM SCT040=

USA.gov is the U.S. government's official web portal to all federal, state and local government web resources and services.